sensor_id;sensor_type;location;lat;lon;timestamp;P1;durP1;ratioP1;P2;durP2;ratioP2
49029;SDS011;43337;52.070;4.508;2022-10-16T00:01:24;5.90;;;1.30;;
49029;SDS011;43337;52.070;4.508;2022-10-16T00:03:56;4.03;;;1.05;;
49029;SDS011;43337;52.070;4.508;2022-10-16T00:06:33;4.68;;;1.25;;
49029;SDS011;43337;52.070;4.508;2022-10-16T00:09:02;4.90;;;1.42;;
49029;SDS011;43337;52.070;4.508;2022-10-16T00:11:29;5.18;;;1.50;;
49029;SDS011;43337;52.070;4.508;2022-10-16T00:14:02;3.97;;;1.17;;
49029;SDS011;43337;52.070;4.508;2022-10-16T00:16:30;4.10;;;1.40;;
49029;SDS011;43337;52.070;4.508;2022-10-16T00:18:56;3.85;;;1.10;;
49029;SDS011;43337;52.070;4.508;2022-10-16T00:21:23;5.80;;;1.90;;
49029;SDS011;43337;52.070;4.508;2022-10-16T00:23:50;5.10;;;1.13;;
49029;SDS011;43337;52.070;4.508;2022-10-16T00:26:17;2.50;;;0.85;;
49029;SDS011;43337;52.070;4.508;2022-10-16T00:28:47;2.30;;;0.82;;
49029;SDS011;43337;52.070;4.508;2022-10-16T00:31:14;8.52;;;1.50;;
49029;SDS011;43337;52.070;4.508;2022-10-16T00:33:40;3.70;;;1.05;;
49029;SDS011;43337;52.070;4.508;2022-10-16T00:36:06;3.92;;;0.80;;
49029;SDS011;43337;52.070;4.508;2022-10-16T00:38:32;2.38;;;0.65;;
49029;SDS011;43337;52.070;4.508;2022-10-16T00:40:58;2.17;;;0.50;;
49029;SDS011;43337;52.070;4.508;2022-10-16T00:43:37;3.30;;;0.70;;
49029;SDS011;43337;52.070;4.508;2022-10-16T00:46:04;3.85;;;0.70;;
49029;SDS011;43337;52.070;4.508;2022-10-16T00:48:35;2.15;;;0.85;;
49029;SDS011;43337;52.070;4.508;2022-10-16T00:51:01;1.38;;;0.50;;
49029;SDS011;43337;52.070;4.508;2022-10-16T00:53:27;7.72;;;0.63;;
49029;SDS011;43337;52.070;4.508;2022-10-16T00:55:53;4.35;;;0.98;;
49029;SDS011;43337;52.070;4.508;2022-10-16T00:58:19;1.88;;;0.60;;
49029;SDS011;43337;52.070;4.508;2022-10-16T01:00:45;3.08;;;0.90;;
49029;SDS011;43337;52.070;4.508;2022-10-16T01:03:24;2.78;;;0.60;;
49029;SDS011;43337;52.070;4.508;2022-10-16T01:06:19;5.50;;;1.27;;
49029;SDS011;43337;52.070;4.508;2022-10-16T01:09:00;2.17;;;0.60;;
49029;SDS011;43337;52.070;4.508;2022-10-16T01:11:51;4.07;;;0.75;;
49029;SDS011;43337;52.070;4.508;2022-10-16T01:14:27;3.33;;;0.70;;
49029;SDS011;43337;52.070;4.508;2022-10-16T01:17:31;4.00;;;0.82;;
49029;SDS011;43337;52.070;4.508;2022-10-16T01:22:43;5.72;;;1.80;;
49029;SDS011;43337;52.070;4.508;2022-10-16T01:25:17;4.17;;;0.90;;
49029;SDS011;43337;52.070;4.508;2022-10-16T01:27:49;3.97;;;0.90;;
49029;SDS011;43337;52.070;4.508;2022-10-16T01:32:51;6.60;;;2.28;;
49029;SDS011;43337;52.070;4.508;2022-10-16T01:35:25;3.90;;;1.15;;
49029;SDS011;43337;52.070;4.508;2022-10-16T01:38:02;2.88;;;0.95;;
49029;SDS011;43337;52.070;4.508;2022-10-16T01:40:31;3.35;;;1.13;;
49029;SDS011;43337;52.070;4.508;2022-10-16T01:43:00;3.33;;;1.35;;
49029;SDS011;43337;52.070;4.508;2022-10-16T01:45:29;4.07;;;1.45;;
49029;SDS011;43337;52.070;4.508;2022-10-16T01:47:57;6.75;;;1.30;;
49029;SDS011;43337;52.070;4.508;2022-10-16T01:50:25;3.63;;;1.30;;
49029;SDS011;43337;52.070;4.508;2022-10-16T01:52:52;2.40;;;0.90;;
49029;SDS011;43337;52.070;4.508;2022-10-16T01:55:26;6.30;;;1.00;;
49029;SDS011;43337;52.070;4.508;2022-10-16T01:57:55;3.28;;;1.00;;
49029;SDS011;43337;52.070;4.508;2022-10-16T02:00:22;4.20;;;1.33;;
49029;SDS011;43337;52.070;4.508;2022-10-16T02:02:50;3.38;;;1.00;;
49029;SDS011;43337;52.070;4.508;2022-10-16T02:05:23;3.38;;;1.00;;
49029;SDS011;43337;52.070;4.508;2022-10-16T02:07:53;4.22;;;1.10;;
49029;SDS011;43337;52.070;4.508;2022-10-16T02:10:19;3.65;;;1.10;;
49029;SDS011;43337;52.070;4.508;2022-10-16T02:12:47;2.28;;;0.75;;
49029;SDS011;43337;52.070;4.508;2022-10-16T02:15:15;4.00;;;0.90;;
49029;SDS011;43337;52.070;4.508;2022-10-16T02:17:41;2.97;;;1.20;;
49029;SDS011;43337;52.070;4.508;2022-10-16T02:20:06;5.85;;;1.42;;
49029;SDS011;43337;52.070;4.508;2022-10-16T02:22:34;3.08;;;1.30;;
49029;SDS011;43337;52.070;4.508;2022-10-16T02:25:11;2.60;;;1.30;;
49029;SDS011;43337;52.070;4.508;2022-10-16T02:30:21;2.70;;;1.25;;
49029;SDS011;43337;52.070;4.508;2022-10-16T02:32:52;4.50;;;1.42;;
49029;SDS011;43337;52.070;4.508;2022-10-16T02:35:20;3.88;;;1.23;;
49029;SDS011;43337;52.070;4.508;2022-10-16T02:37:47;3.92;;;1.30;;
49029;SDS011;43337;52.070;4.508;2022-10-16T02:40:15;3.63;;;1.25;;
49029;SDS011;43337;52.070;4.508;2022-10-16T02:42:41;3.75;;;1.30;;
49029;SDS011;43337;52.070;4.508;2022-10-16T02:45:08;5.38;;;1.38;;
49029;SDS011;43337;52.070;4.508;2022-10-16T02:47:35;3.85;;;1.05;;
49029;SDS011;43337;52.070;4.508;2022-10-16T02:50:00;3.70;;;1.65;;
49029;SDS011;43337;52.070;4.508;2022-10-16T02:52:25;3.53;;;1.30;;
49029;SDS011;43337;52.070;4.508;2022-10-16T02:54:51;4.88;;;1.25;;
49029;SDS011;43337;52.070;4.508;2022-10-16T02:57:16;5.18;;;1.25;;
49029;SDS011;43337;52.070;4.508;2022-10-16T02:59:42;4.38;;;1.27;;
49029;SDS011;43337;52.070;4.508;2022-10-16T03:02:08;6.88;;;1.35;;
49029;SDS011;43337;52.070;4.508;2022-10-16T03:04:34;4.28;;;0.95;;
49029;SDS011;43337;52.070;4.508;2022-10-16T03:06:59;3.20;;;1.38;;
49029;SDS011;43337;52.070;4.508;2022-10-16T03:09:24;3.58;;;1.33;;
49029;SDS011;43337;52.070;4.508;2022-10-16T03:11:50;4.90;;;2.05;;
49029;SDS011;43337;52.070;4.508;2022-10-16T03:14:15;3.53;;;1.10;;
49029;SDS011;43337;52.070;4.508;2022-10-16T03:16:41;3.33;;;1.02;;
49029;SDS011;43337;52.070;4.508;2022-10-16T03:19:06;5.25;;;1.20;;
49029;SDS011;43337;52.070;4.508;2022-10-16T03:21:31;5.28;;;0.95;;
49029;SDS011;43337;52.070;4.508;2022-10-16T03:23:57;5.18;;;1.23;;
49029;SDS011;43337;52.070;4.508;2022-10-16T03:26:22;4.20;;;1.10;;
49029;SDS011;43337;52.070;4.508;2022-10-16T03:28:48;6.80;;;1.20;;
49029;SDS011;43337;52.070;4.508;2022-10-16T03:31:13;6.45;;;1.13;;
49029;SDS011;43337;52.070;4.508;2022-10-16T03:33:38;4.93;;;1.05;;
49029;SDS011;43337;52.070;4.508;2022-10-16T03:36:04;4.80;;;1.25;;
49029;SDS011;43337;52.070;4.508;2022-10-16T03:38:29;4.47;;;1.25;;
49029;SDS011;43337;52.070;4.508;2022-10-16T03:40:54;5.20;;;0.98;;
49029;SDS011;43337;52.070;4.508;2022-10-16T03:43:20;3.65;;;1.08;;
49029;SDS011;43337;52.070;4.508;2022-10-16T03:45:45;2.53;;;0.88;;
49029;SDS011;43337;52.070;4.508;2022-10-16T03:48:11;5.82;;;1.40;;
49029;SDS011;43337;52.070;4.508;2022-10-16T03:50:36;5.30;;;1.17;;
49029;SDS011;43337;52.070;4.508;2022-10-16T03:53:01;4.80;;;1.27;;
49029;SDS011;43337;52.070;4.508;2022-10-16T03:55:27;9.27;;;1.20;;
49029;SDS011;43337;52.070;4.508;2022-10-16T03:57:53;8.60;;;2.10;;
49029;SDS011;43337;52.070;4.508;2022-10-16T04:00:18;4.60;;;1.50;;
49029;SDS011;43337;52.070;4.508;2022-10-16T04:02:44;5.82;;;1.00;;
49029;SDS011;43337;52.070;4.508;2022-10-16T04:05:09;6.10;;;1.38;;
49029;SDS011;43337;52.070;4.508;2022-10-16T04:07:36;3.72;;;0.98;;
49029;SDS011;43337;52.070;4.508;2022-10-16T04:10:02;4.22;;;1.02;;
49029;SDS011;43337;52.070;4.508;2022-10-16T04:12:27;5.45;;;1.05;;
49029;SDS011;43337;52.070;4.508;2022-10-16T04:14:53;4.15;;;1.10;;
49029;SDS011;43337;52.070;4.508;2022-10-16T04:17:18;11.23;;;1.75;;
49029;SDS011;43337;52.070;4.508;2022-10-16T04:19:43;5.28;;;0.90;;
49029;SDS011;43337;52.070;4.508;2022-10-16T04:22:09;4.50;;;1.10;;
49029;SDS011;43337;52.070;4.508;2022-10-16T04:24:34;4.70;;;1.27;;
49029;SDS011;43337;52.070;4.508;2022-10-16T04:26:59;6.35;;;1.15;;
49029;SDS011;43337;52.070;4.508;2022-10-16T04:29:25;7.00;;;1.35;;
49029;SDS011;43337;52.070;4.508;2022-10-16T04:31:50;3.30;;;1.13;;
49029;SDS011;43337;52.070;4.508;2022-10-16T04:34:16;3.80;;;1.10;;
49029;SDS011;43337;52.070;4.508;2022-10-16T04:36:41;4.88;;;1.20;;
49029;SDS011;43337;52.070;4.508;2022-10-16T04:39:07;5.57;;;1.92;;
49029;SDS011;43337;52.070;4.508;2022-10-16T04:41:32;4.60;;;1.20;;
49029;SDS011;43337;52.070;4.508;2022-10-16T04:43:57;5.55;;;0.95;;
49029;SDS011;43337;52.070;4.508;2022-10-16T04:46:23;3.30;;;1.15;;
49029;SDS011;43337;52.070;4.508;2022-10-16T04:48:48;6.22;;;1.67;;
49029;SDS011;43337;52.070;4.508;2022-10-16T04:51:13;4.97;;;1.30;;
49029;SDS011;43337;52.070;4.508;2022-10-16T04:53:39;3.25;;;1.00;;
49029;SDS011;43337;52.070;4.508;2022-10-16T04:56:04;6.13;;;1.90;;
49029;SDS011;43337;52.070;4.508;2022-10-16T04:58:30;3.22;;;1.30;;
49029;SDS011;43337;52.070;4.508;2022-10-16T05:00:55;6.57;;;1.20;;
49029;SDS011;43337;52.070;4.508;2022-10-16T05:03:21;6.10;;;2.00;;
49029;SDS011;43337;52.070;4.508;2022-10-16T05:05:46;7.88;;;2.75;;
49029;SDS011;43337;52.070;4.508;2022-10-16T05:08:12;4.32;;;1.52;;
49029;SDS011;43337;52.070;4.508;2022-10-16T05:10:39;7.72;;;1.52;;
49029;SDS011;43337;52.070;4.508;2022-10-16T05:13:05;7.20;;;1.55;;
49029;SDS011;43337;52.070;4.508;2022-10-16T05:15:31;6.32;;;1.70;;
49029;SDS011;43337;52.070;4.508;2022-10-16T05:17:56;12.30;;;2.10;;
49029;SDS011;43337;52.070;4.508;2022-10-16T05:20:22;6.35;;;2.10;;
49029;SDS011;43337;52.070;4.508;2022-10-16T05:22:48;6.88;;;1.80;;
49029;SDS011;43337;52.070;4.508;2022-10-16T05:25:13;5.88;;;1.88;;
49029;SDS011;43337;52.070;4.508;2022-10-16T05:27:39;5.28;;;1.88;;
49029;SDS011;43337;52.070;4.508;2022-10-16T05:30:04;7.70;;;2.05;;
49029;SDS011;43337;52.070;4.508;2022-10-16T05:32:30;6.20;;;2.38;;
49029;SDS011;43337;52.070;4.508;2022-10-16T05:34:55;5.47;;;2.50;;
49029;SDS011;43337;52.070;4.508;2022-10-16T05:37:21;9.27;;;2.15;;
49029;SDS011;43337;52.070;4.508;2022-10-16T05:39:46;6.35;;;2.13;;
49029;SDS011;43337;52.070;4.508;2022-10-16T05:42:12;7.97;;;2.92;;
49029;SDS011;43337;52.070;4.508;2022-10-16T05:44:37;5.97;;;2.03;;
49029;SDS011;43337;52.070;4.508;2022-10-16T05:47:03;9.07;;;2.67;;
49029;SDS011;43337;52.070;4.508;2022-10-16T05:49:28;8.10;;;2.85;;
49029;SDS011;43337;52.070;4.508;2022-10-16T05:51:53;6.63;;;2.90;;
49029;SDS011;43337;52.070;4.508;2022-10-16T05:54:19;11.35;;;3.10;;
49029;SDS011;43337;52.070;4.508;2022-10-16T05:56:44;7.85;;;2.45;;
49029;SDS011;43337;52.070;4.508;2022-10-16T05:59:09;10.30;;;2.50;;
49029;SDS011;43337;52.070;4.508;2022-10-16T06:01:35;6.60;;;2.40;;
49029;SDS011;43337;52.070;4.508;2022-10-16T06:04:00;9.55;;;2.63;;
49029;SDS011;43337;52.070;4.508;2022-10-16T06:06:26;9.85;;;2.65;;
49029;SDS011;43337;52.070;4.508;2022-10-16T06:08:52;12.20;;;2.63;;
49029;SDS011;43337;52.070;4.508;2022-10-16T06:11:20;5.15;;;2.10;;
49029;SDS011;43337;52.070;4.508;2022-10-16T06:13:50;8.45;;;3.05;;
49029;SDS011;43337;52.070;4.508;2022-10-16T06:16:17;8.63;;;2.38;;
49029;SDS011;43337;52.070;4.508;2022-10-16T06:18:42;7.45;;;2.13;;
49029;SDS011;43337;52.070;4.508;2022-10-16T06:21:08;10.77;;;2.55;;
49029;SDS011;43337;52.070;4.508;2022-10-16T06:23:39;7.53;;;2.38;;
49029;SDS011;43337;52.070;4.508;2022-10-16T06:26:09;7.53;;;2.20;;
49029;SDS011;43337;52.070;4.508;2022-10-16T06:28:38;4.97;;;1.90;;
49029;SDS011;43337;52.070;4.508;2022-10-16T06:31:04;4.05;;;1.70;;
49029;SDS011;43337;52.070;4.508;2022-10-16T06:33:30;5.95;;;2.08;;
49029;SDS011;43337;52.070;4.508;2022-10-16T06:36:06;5.90;;;1.85;;
49029;SDS011;43337;52.070;4.508;2022-10-16T06:38:33;5.70;;;1.70;;
49029;SDS011;43337;52.070;4.508;2022-10-16T06:40:59;4.97;;;1.60;;
49029;SDS011;43337;52.070;4.508;2022-10-16T06:43:25;6.75;;;1.55;;
49029;SDS011;43337;52.070;4.508;2022-10-16T06:45:54;8.70;;;1.52;;
49029;SDS011;43337;52.070;4.508;2022-10-16T06:48:21;5.75;;;1.60;;
49029;SDS011;43337;52.070;4.508;2022-10-16T06:53:27;6.63;;;1.40;;
49029;SDS011;43337;52.070;4.508;2022-10-16T06:55:53;5.88;;;1.30;;
49029;SDS011;43337;52.070;4.508;2022-10-16T06:58:19;7.68;;;1.60;;
49029;SDS011;43337;52.070;4.508;2022-10-16T07:00:45;8.50;;;1.67;;
49029;SDS011;43337;52.070;4.508;2022-10-16T07:03:10;6.53;;;1.60;;
49029;SDS011;43337;52.070;4.508;2022-10-16T07:05:37;8.55;;;1.65;;
49029;SDS011;43337;52.070;4.508;2022-10-16T07:08:06;11.63;;;4.15;;
49029;SDS011;43337;52.070;4.508;2022-10-16T07:10:32;10.18;;;3.80;;
49029;SDS011;43337;52.070;4.508;2022-10-16T07:12:58;4.43;;;1.58;;
49029;SDS011;43337;52.070;4.508;2022-10-16T07:15:24;5.57;;;1.50;;
49029;SDS011;43337;52.070;4.508;2022-10-16T07:17:50;7.60;;;1.85;;
49029;SDS011;43337;52.070;4.508;2022-10-16T07:20:16;10.60;;;2.28;;
49029;SDS011;43337;52.070;4.508;2022-10-16T07:22:41;5.93;;;2.03;;
49029;SDS011;43337;52.070;4.508;2022-10-16T07:25:07;9.57;;;2.00;;
49029;SDS011;43337;52.070;4.508;2022-10-16T07:27:32;9.77;;;2.90;;
49029;SDS011;43337;52.070;4.508;2022-10-16T07:29:58;7.05;;;2.33;;
49029;SDS011;43337;52.070;4.508;2022-10-16T07:32:23;8.27;;;2.20;;
49029;SDS011;43337;52.070;4.508;2022-10-16T07:34:50;10.02;;;3.03;;
49029;SDS011;43337;52.070;4.508;2022-10-16T07:37:16;6.25;;;2.10;;
49029;SDS011;43337;52.070;4.508;2022-10-16T07:39:41;9.85;;;2.53;;
49029;SDS011;43337;52.070;4.508;2022-10-16T07:42:07;10.27;;;2.28;;
49029;SDS011;43337;52.070;4.508;2022-10-16T07:44:32;8.90;;;3.08;;
49029;SDS011;43337;52.070;4.508;2022-10-16T07:46:58;8.20;;;2.70;;
49029;SDS011;43337;52.070;4.508;2022-10-16T07:49:23;5.50;;;2.00;;
49029;SDS011;43337;52.070;4.508;2022-10-16T07:51:49;9.27;;;2.45;;
49029;SDS011;43337;52.070;4.508;2022-10-16T07:54:15;12.55;;;2.33;;
49029;SDS011;43337;52.070;4.508;2022-10-16T07:56:40;14.57;;;4.57;;
49029;SDS011;43337;52.070;4.508;2022-10-16T07:59:06;6.85;;;2.13;;
49029;SDS011;43337;52.070;4.508;2022-10-16T08:01:31;7.72;;;2.15;;
49029;SDS011;43337;52.070;4.508;2022-10-16T08:03:56;11.90;;;2.45;;
49029;SDS011;43337;52.070;4.508;2022-10-16T08:06:22;12.55;;;5.03;;
49029;SDS011;43337;52.070;4.508;2022-10-16T08:08:48;9.65;;;2.60;;
49029;SDS011;43337;52.070;4.508;2022-10-16T08:11:13;12.20;;;2.30;;
49029;SDS011;43337;52.070;4.508;2022-10-16T08:13:39;8.65;;;2.70;;
49029;SDS011;43337;52.070;4.508;2022-10-16T08:16:05;6.85;;;1.60;;
49029;SDS011;43337;52.070;4.508;2022-10-16T08:18:35;9.73;;;1.88;;
49029;SDS011;43337;52.070;4.508;2022-10-16T08:21:02;8.70;;;2.10;;
49029;SDS011;43337;52.070;4.508;2022-10-16T08:23:34;11.18;;;1.83;;
49029;SDS011;43337;52.070;4.508;2022-10-16T08:26:04;8.50;;;2.03;;
49029;SDS011;43337;52.070;4.508;2022-10-16T08:28:30;10.85;;;2.10;;
49029;SDS011;43337;52.070;4.508;2022-10-16T08:30:56;19.20;;;2.40;;
49029;SDS011;43337;52.070;4.508;2022-10-16T08:33:30;10.98;;;2.30;;
49029;SDS011;43337;52.070;4.508;2022-10-16T08:35:55;9.50;;;1.92;;
49029;SDS011;43337;52.070;4.508;2022-10-16T08:38:21;10.13;;;1.50;;
49029;SDS011;43337;52.070;4.508;2022-10-16T08:40:46;8.57;;;1.95;;
49029;SDS011;43337;52.070;4.508;2022-10-16T08:48:55;11.27;;;1.88;;
49029;SDS011;43337;52.070;4.508;2022-10-16T08:51:33;8.38;;;1.98;;
49029;SDS011;43337;52.070;4.508;2022-10-16T08:54:05;9.90;;;2.33;;
49029;SDS011;43337;52.070;4.508;2022-10-16T08:56:40;11.95;;;1.80;;
49029;SDS011;43337;52.070;4.508;2022-10-16T08:59:06;10.68;;;1.70;;
49029;SDS011;43337;52.070;4.508;2022-10-16T09:01:45;8.70;;;1.40;;
49029;SDS011;43337;52.070;4.508;2022-10-16T09:07:04;9.85;;;2.10;;
49029;SDS011;43337;52.070;4.508;2022-10-16T09:20:30;14.63;;;2.38;;
49029;SDS011;43337;52.070;4.508;2022-10-16T09:23:22;13.88;;;2.08;;
49029;SDS011;43337;52.070;4.508;2022-10-16T09:25:50;12.90;;;2.13;;
49029;SDS011;43337;52.070;4.508;2022-10-16T09:28:17;16.48;;;2.85;;
49029;SDS011;43337;52.070;4.508;2022-10-16T09:30:44;11.07;;;1.70;;
49029;SDS011;43337;52.070;4.508;2022-10-16T09:33:11;9.73;;;2.83;;
49029;SDS011;43337;52.070;4.508;2022-10-16T09:35:49;13.50;;;2.85;;
49029;SDS011;43337;52.070;4.508;2022-10-16T09:40:52;12.50;;;2.17;;
49029;SDS011;43337;52.070;4.508;2022-10-16T09:43:26;16.95;;;4.43;;
49029;SDS011;43337;52.070;4.508;2022-10-16T09:46:04;10.73;;;2.20;;
49029;SDS011;43337;52.070;4.508;2022-10-16T09:48:36;14.32;;;1.98;;
49029;SDS011;43337;52.070;4.508;2022-10-16T09:51:06;14.07;;;2.30;;
49029;SDS011;43337;52.070;4.508;2022-10-16T09:53:42;13.68;;;2.15;;
49029;SDS011;43337;52.070;4.508;2022-10-16T09:56:10;15.90;;;2.40;;
49029;SDS011;43337;52.070;4.508;2022-10-16T09:58:58;12.98;;;1.73;;
49029;SDS011;43337;52.070;4.508;2022-10-16T10:01:48;11.10;;;2.15;;
49029;SDS011;43337;52.070;4.508;2022-10-16T10:04:16;7.28;;;1.70;;
49029;SDS011;43337;52.070;4.508;2022-10-16T10:17:13;13.82;;;1.60;;
49029;SDS011;43337;52.070;4.508;2022-10-16T10:19:44;14.98;;;1.88;;
49029;SDS011;43337;52.070;4.508;2022-10-16T10:27:24;10.43;;;1.88;;
49029;SDS011;43337;52.070;4.508;2022-10-16T10:30:08;11.07;;;2.33;;
49029;SDS011;43337;52.070;4.508;2022-10-16T10:32:52;7.85;;;1.90;;
49029;SDS011;43337;52.070;4.508;2022-10-16T10:38:16;8.80;;;1.25;;
49029;SDS011;43337;52.070;4.508;2022-10-16T10:40:52;11.40;;;1.52;;
49029;SDS011;43337;52.070;4.508;2022-10-16T10:43:59;9.30;;;2.13;;
49029;SDS011;43337;52.070;4.508;2022-10-16T10:46:41;18.90;;;2.20;;
49029;SDS011;43337;52.070;4.508;2022-10-16T10:51:51;12.52;;;1.38;;
49029;SDS011;43337;52.070;4.508;2022-10-16T11:03:17;12.50;;;2.17;;
49029;SDS011;43337;52.070;4.508;2022-10-16T11:06:00;11.35;;;1.50;;
49029;SDS011;43337;52.070;4.508;2022-10-16T11:08:35;10.38;;;1.40;;
49029;SDS011;43337;52.070;4.508;2022-10-16T11:11:06;18.08;;;2.42;;
49029;SDS011;43337;52.070;4.508;2022-10-16T11:13:40;13.77;;;2.13;;
49029;SDS011;43337;52.070;4.508;2022-10-16T11:16:13;11.02;;;1.73;;
49029;SDS011;43337;52.070;4.508;2022-10-16T11:19:03;8.77;;;1.75;;
49029;SDS011;43337;52.070;4.508;2022-10-16T11:21:39;10.35;;;2.65;;
49029;SDS011;43337;52.070;4.508;2022-10-16T11:24:23;11.63;;;2.03;;
49029;SDS011;43337;52.070;4.508;2022-10-16T11:26:56;9.60;;;1.60;;
49029;SDS011;43337;52.070;4.508;2022-10-16T11:29:32;10.55;;;1.58;;
49029;SDS011;43337;52.070;4.508;2022-10-16T11:32:11;8.95;;;1.63;;
49029;SDS011;43337;52.070;4.508;2022-10-16T11:34:50;11.40;;;1.92;;
49029;SDS011;43337;52.070;4.508;2022-10-16T11:37:21;6.97;;;1.20;;
49029;SDS011;43337;52.070;4.508;2022-10-16T11:39:53;8.05;;;1.48;;
49029;SDS011;43337;52.070;4.508;2022-10-16T11:42:28;12.63;;;1.67;;
49029;SDS011;43337;52.070;4.508;2022-10-16T11:45:04;11.20;;;2.40;;
49029;SDS011;43337;52.070;4.508;2022-10-16T11:47:50;8.30;;;1.30;;
49029;SDS011;43337;52.070;4.508;2022-10-16T11:50:25;9.88;;;1.98;;
49029;SDS011;43337;52.070;4.508;2022-10-16T11:55:44;12.68;;;2.97;;
49029;SDS011;43337;52.070;4.508;2022-10-16T11:58:21;9.15;;;1.70;;
49029;SDS011;43337;52.070;4.508;2022-10-16T12:00:55;6.78;;;1.75;;
49029;SDS011;43337;52.070;4.508;2022-10-16T12:08:59;13.65;;;2.55;;
49029;SDS011;43337;52.070;4.508;2022-10-16T12:13:51;8.27;;;1.88;;
49029;SDS011;43337;52.070;4.508;2022-10-16T12:16:28;11.38;;;2.00;;
49029;SDS011;43337;52.070;4.508;2022-10-16T12:19:10;7.00;;;1.30;;
49029;SDS011;43337;52.070;4.508;2022-10-16T12:21:40;9.40;;;1.10;;
49029;SDS011;43337;52.070;4.508;2022-10-16T12:24:06;5.72;;;1.40;;
49029;SDS011;43337;52.070;4.508;2022-10-16T12:26:46;8.70;;;1.70;;
49029;SDS011;43337;52.070;4.508;2022-10-16T12:29:34;9.65;;;1.55;;
49029;SDS011;43337;52.070;4.508;2022-10-16T12:32:03;10.75;;;1.58;;
49029;SDS011;43337;52.070;4.508;2022-10-16T12:34:34;6.47;;;1.05;;
49029;SDS011;43337;52.070;4.508;2022-10-16T12:37:35;5.32;;;1.23;;
49029;SDS011;43337;52.070;4.508;2022-10-16T12:39:56;19.73;;;2.42;;
49029;SDS011;43337;52.070;4.508;2022-10-16T12:44:51;6.88;;;1.08;;
49029;SDS011;43337;52.070;4.508;2022-10-16T12:47:47;9.77;;;1.25;;
49029;SDS011;43337;52.070;4.508;2022-10-16T12:50:26;9.98;;;1.65;;
49029;SDS011;43337;52.070;4.508;2022-10-16T12:55:23;8.55;;;1.88;;
49029;SDS011;43337;52.070;4.508;2022-10-16T13:00:57;12.93;;;1.70;;
49029;SDS011;43337;52.070;4.508;2022-10-16T13:03:54;10.77;;;1.73;;
49029;SDS011;43337;52.070;4.508;2022-10-16T13:09:59;13.70;;;1.85;;
49029;SDS011;43337;52.070;4.508;2022-10-16T13:15:24;11.07;;;2.55;;
49029;SDS011;43337;52.070;4.508;2022-10-16T13:18:13;13.43;;;1.70;;
49029;SDS011;43337;52.070;4.508;2022-10-16T13:21:07;9.07;;;1.20;;
49029;SDS011;43337;52.070;4.508;2022-10-16T13:23:44;13.70;;;2.15;;
49029;SDS011;43337;52.070;4.508;2022-10-16T13:26:31;9.40;;;1.40;;
49029;SDS011;43337;52.070;4.508;2022-10-16T13:29:19;10.35;;;1.85;;
49029;SDS011;43337;52.070;4.508;2022-10-16T13:31:45;6.93;;;1.38;;
49029;SDS011;43337;52.070;4.508;2022-10-16T13:34:19;11.05;;;2.38;;
49029;SDS011;43337;52.070;4.508;2022-10-16T13:36:48;6.95;;;1.30;;
49029;SDS011;43337;52.070;4.508;2022-10-16T13:39:19;7.60;;;1.25;;
49029;SDS011;43337;52.070;4.508;2022-10-16T13:44:47;10.02;;;1.80;;
49029;SDS011;43337;52.070;4.508;2022-10-16T13:47:18;11.82;;;1.30;;
49029;SDS011;43337;52.070;4.508;2022-10-16T13:49:44;9.18;;;1.25;;
49029;SDS011;43337;52.070;4.508;2022-10-16T13:52:17;9.95;;;1.60;;
49029;SDS011;43337;52.070;4.508;2022-10-16T13:54:44;22.33;;;7.75;;
49029;SDS011;43337;52.070;4.508;2022-10-16T13:57:13;10.77;;;1.83;;
49029;SDS011;43337;52.070;4.508;2022-10-16T13:59:40;7.03;;;1.15;;
49029;SDS011;43337;52.070;4.508;2022-10-16T14:05:00;13.68;;;1.63;;
49029;SDS011;43337;52.070;4.508;2022-10-16T14:07:27;11.55;;;1.70;;
49029;SDS011;43337;52.070;4.508;2022-10-16T14:09:56;8.60;;;1.30;;
49029;SDS011;43337;52.070;4.508;2022-10-16T14:12:28;9.80;;;1.55;;
49029;SDS011;43337;52.070;4.508;2022-10-16T14:14:53;8.52;;;1.70;;
49029;SDS011;43337;52.070;4.508;2022-10-16T14:17:22;9.77;;;2.17;;
49029;SDS011;43337;52.070;4.508;2022-10-16T14:19:50;13.98;;;2.05;;
49029;SDS011;43337;52.070;4.508;2022-10-16T14:22:35;9.18;;;1.67;;
49029;SDS011;43337;52.070;4.508;2022-10-16T14:25:18;11.35;;;1.52;;
49029;SDS011;43337;52.070;4.508;2022-10-16T14:27:46;10.93;;;1.77;;
49029;SDS011;43337;52.070;4.508;2022-10-16T14:30:52;12.10;;;2.25;;
49029;SDS011;43337;52.070;4.508;2022-10-16T14:33:21;11.45;;;1.52;;
49029;SDS011;43337;52.070;4.508;2022-10-16T14:35:56;10.43;;;1.60;;
49029;SDS011;43337;52.070;4.508;2022-10-16T14:39:04;9.20;;;1.42;;
49029;SDS011;43337;52.070;4.508;2022-10-16T14:41:32;10.40;;;1.50;;
49029;SDS011;43337;52.070;4.508;2022-10-16T14:44:05;10.80;;;1.60;;
49029;SDS011;43337;52.070;4.508;2022-10-16T14:46:32;9.05;;;1.90;;
49029;SDS011;43337;52.070;4.508;2022-10-16T14:49:02;12.07;;;1.52;;
49029;SDS011;43337;52.070;4.508;2022-10-16T14:51:38;11.00;;;1.63;;
49029;SDS011;43337;52.070;4.508;2022-10-16T14:54:07;10.95;;;1.88;;
49029;SDS011;43337;52.070;4.508;2022-10-16T14:56:35;13.65;;;1.60;;
49029;SDS011;43337;52.070;4.508;2022-10-16T14:59:17;10.35;;;1.75;;
49029;SDS011;43337;52.070;4.508;2022-10-16T15:01:51;8.60;;;1.50;;
49029;SDS011;43337;52.070;4.508;2022-10-16T15:04:17;12.10;;;1.88;;
49029;SDS011;43337;52.070;4.508;2022-10-16T15:06:43;12.43;;;2.05;;
49029;SDS011;43337;52.070;4.508;2022-10-16T15:09:09;11.90;;;1.90;;
49029;SDS011;43337;52.070;4.508;2022-10-16T15:11:34;12.63;;;2.40;;
49029;SDS011;43337;52.070;4.508;2022-10-16T15:14:00;10.13;;;1.50;;
49029;SDS011;43337;52.070;4.508;2022-10-16T15:16:26;11.00;;;2.05;;
49029;SDS011;43337;52.070;4.508;2022-10-16T15:18:51;9.38;;;1.70;;
49029;SDS011;43337;52.070;4.508;2022-10-16T15:21:24;12.10;;;2.30;;
49029;SDS011;43337;52.070;4.508;2022-10-16T15:23:57;14.57;;;4.90;;
49029;SDS011;43337;52.070;4.508;2022-10-16T15:26:27;11.10;;;3.80;;
49029;SDS011;43337;52.070;4.508;2022-10-16T15:28:54;14.32;;;3.03;;
49029;SDS011;43337;52.070;4.508;2022-10-16T15:31:20;8.38;;;1.70;;
49029;SDS011;43337;52.070;4.508;2022-10-16T15:33:48;14.35;;;1.80;;
49029;SDS011;43337;52.070;4.508;2022-10-16T15:36:23;13.60;;;2.17;;
49029;SDS011;43337;52.070;4.508;2022-10-16T15:38:50;9.60;;;2.50;;
49029;SDS011;43337;52.070;4.508;2022-10-16T15:41:15;11.82;;;2.67;;
49029;SDS011;43337;52.070;4.508;2022-10-16T15:43:40;8.23;;;2.17;;
49029;SDS011;43337;52.070;4.508;2022-10-16T15:46:07;12.77;;;2.58;;
49029;SDS011;43337;52.070;4.508;2022-10-16T15:48:36;18.05;;;3.65;;
49029;SDS011;43337;52.070;4.508;2022-10-16T15:51:05;11.82;;;2.50;;
49029;SDS011;43337;52.070;4.508;2022-10-16T15:53:34;9.75;;;2.33;;
49029;SDS011;43337;52.070;4.508;2022-10-16T15:56:06;7.85;;;1.73;;
49029;SDS011;43337;52.070;4.508;2022-10-16T15:58:33;12.45;;;2.67;;
49029;SDS011;43337;52.070;4.508;2022-10-16T16:01:02;11.57;;;2.47;;
49029;SDS011;43337;52.070;4.508;2022-10-16T16:03:34;9.15;;;2.58;;
49029;SDS011;43337;52.070;4.508;2022-10-16T16:06:08;13.95;;;3.83;;
49029;SDS011;43337;52.070;4.508;2022-10-16T16:08:35;11.20;;;2.45;;
49029;SDS011;43337;52.070;4.508;2022-10-16T16:11:05;10.93;;;3.42;;
49029;SDS011;43337;52.070;4.508;2022-10-16T16:13:35;17.23;;;4.28;;
49029;SDS011;43337;52.070;4.508;2022-10-16T16:16:04;12.07;;;2.90;;
49029;SDS011;43337;52.070;4.508;2022-10-16T16:18:31;11.40;;;2.67;;
49029;SDS011;43337;52.070;4.508;2022-10-16T16:20:57;13.40;;;2.38;;
49029;SDS011;43337;52.070;4.508;2022-10-16T16:23:22;10.90;;;3.00;;
49029;SDS011;43337;52.070;4.508;2022-10-16T16:28:32;14.00;;;2.97;;
49029;SDS011;43337;52.070;4.508;2022-10-16T16:30:58;8.82;;;2.45;;
49029;SDS011;43337;52.070;4.508;2022-10-16T16:33:24;11.43;;;2.40;;
49029;SDS011;43337;52.070;4.508;2022-10-16T16:35:49;11.02;;;3.20;;